Map

Track Data

SID SEASON NUMBER BASIN SUBBASIN NAME ISO_TIME NATURE LAT LON WMO_WIND WMO_PRES WMO_AGENCY TRACK_TYPE DIST2LAND LANDFALL IFLAG USA_AGENCY USA_ATCF_ID USA_LAT USA_LON USA_RECORD USA_STATUS USA_WIND USA_PRES USA_SSHS USA_R34_NE USA_R34_SE USA_R34_SW USA_R34_NW USA_R50_NE USA_R50_SE USA_R50_SW USA_R50_NW USA_R64_NE USA_R64_SE USA_R64_SW USA_R64_NW USA_POCI USA_ROCI USA_RMW USA_EYE TOKYO_LAT TOKYO_LON TOKYO_GRADE TOKYO_WIND TOKYO_PRES TOKYO_R50_DIR TOKYO_R50_LONG TOKYO_R50_SHORT TOKYO_R30_DIR TOKYO_R30_LONG TOKYO_R30_SHORT TOKYO_LAND CMA_LAT CMA_LON CMA_CAT CMA_WIND CMA_PRES HKO_LAT HKO_LON HKO_CAT HKO_WIND HKO_PRES NEWDELHI_LAT NEWDELHI_LON NEWDELHI_GRADE NEWDELHI_WIND NEWDELHI_PRES NEWDELHI_CI NEWDELHI_DP NEWDELHI_POCI REUNION_LAT REUNION_LON REUNION_TYPE REUNION_WIND REUNION_PRES REUNION_TNUM REUNION_CI REUNION_RMW REUNION_R34_NE REUNION_R34_SE REUNION_R34_SW REUNION_R34_NW REUNION_R50_NE REUNION_R50_SE REUNION_R50_SW REUNION_R50_NW REUNION_R64_NE REUNION_R64_SE REUNION_R64_SW REUNION_R64_NW BOM_LAT BOM_LON BOM_TYPE BOM_WIND BOM_PRES BOM_TNUM BOM_CI BOM_RMW BOM_R34_NE BOM_R34_SE BOM_R34_SW BOM_R34_NW BOM_R50_NE BOM_R50_SE BOM_R50_SW BOM_R50_NW BOM_R64_NE BOM_R64_SE BOM_R64_SW BOM_R64_NW BOM_ROCI BOM_POCI BOM_EYE BOM_POS_METHOD BOM_PRES_METHOD NADI_LAT NADI_LON NADI_CAT NADI_WIND NADI_PRES WELLINGTON_LAT WELLINGTON_LON WELLINGTON_WIND WELLINGTON_PRES DS824_LAT DS824_LON DS824_STAGE DS824_WIND DS824_PRES TD9636_LAT TD9636_LON TD9636_STAGE TD9636_WIND TD9636_PRES TD9635_LAT TD9635_LON TD9635_WIND TD9635_PRES TD9635_ROCI NEUMANN_LAT NEUMANN_LON NEUMANN_CLASS NEUMANN_WIND NEUMANN_PRES MLC_LAT MLC_LON MLC_CLASS MLC_WIND MLC_PRES USA_GUST BOM_GUST BOM_GUST_PER REUNION_GUST REUNION_GUST_PER USA_SEAHGT USA_SEARAD_NE USA_SEARAD_SE USA_SEARAD_SW USA_SEARAD_NW STORM_SPEED STORM_DIR
1956087S18149 1956 33 SP EA NOT_NAMED 1956-03-26 23:00:00 NR -17.5000 148.500 main 242 242 __________O___ -1 -17.5000 148.500 1 15 5 104
1956087S18149 1956 33 SP EA NOT_NAMED 1956-03-27 00:00:00 TS -17.5197 148.581 main 247 243 O________OP___ jtwc_sh SH311956 -17.5000 148.600 15 -1 -17.5000 148.600 TC 15 -17.5395 148.561 1 15 5 120
1956087S18149 1956 33 SP EA NOT_NAMED 1956-03-27 03:00:00 TS -17.6496 148.775 main 249 238 P________PP___ SH311956 -17.6400 148.792 15 -1 -17.6400 148.792 TC 15 -17.6623 148.751 1 15 5 126
1956087S18149 1956 33 SP EA NOT_NAMED 1956-03-27 06:00:00 TS -17.8004 148.985 main 245 242 O________OP___ jtwc_sh SH311956 -17.8000 149.000 15 -1 -17.8000 149.000 TC 15 -17.8010 148.961 1 15 5 128
1956087S18149 1956 33 SP EA NOT_NAMED 1956-03-27 09:00:00 TS -17.9842 149.226 main 242 237 P________PP___ SH311956 -17.9925 149.235 15 -1 -17.9925 149.235 TC 15 -17.9676 149.208 1 15 6 129
1956087S18149 1956 33 SP EA NOT_NAMED 1956-03-27 11:00:00 TS -18.1205 149.406 main 241 237 P________PO___ SH311956 -18.1307 149.408 15 -1 -18.1307 149.408 TC 15 -18.1000 149.400 1 15 7 128
1956087S18149 1956 33 SP EA NOT_NAMED 1956-03-27 12:00:00 TS -18.1912 149.502 main 237 231 O________OP___ jtwc_sh SH311956 -18.2000 149.500 15 -1 -18.2000 149.500 TC 15 -18.1737 149.506 1 15 7 125
1956087S18149 1956 33 SP EA NOT_NAMED 1956-03-27 15:00:00 TS -18.3999 149.819 main 237 228 P________PP___ SH311956 -18.3925 149.808 17 -1 -18.3925 149.808 TC 17 -18.4147 149.842 1 16 7 126
1956087S18149 1956 33 SP EA NOT_NAMED 1956-03-27 18:00:00 TS -18.6204 150.121 main 233 229 O________OP___ jtwc_sh SH311956 -18.6000 150.100 20 -1 -18.6000 150.100 TC 20 -18.6613 150.163 1 17 7 132
1956087S18149 1956 33 SP EA NOT_NAMED 1956-03-27 21:00:00 TS -18.8757 150.376 main 229 221 P________PP___ SH311956 -18.8725 150.360 20 -1 -18.8725 150.360 TC 20 -18.8823 150.408 1 19 6 140
1956087S18149 1956 33 SP EA NOT_NAMED 1956-03-27 23:00:00 TS -19.0246 150.482 main 229 222 P________PO___ SH311956 -19.0369 150.473 20 -1 -19.0369 150.473 TC 20 -19.0000 150.500 1 20 5 150
1956087S18149 1956 33 SP EA NOT_NAMED 1956-03-28 00:00:00 TS -19.0837 150.504 main 222 216 O________OP___ jtwc_sh SH311956 -19.1000 150.500 20 -1 -19.1000 150.500 TC 20 -19.0511 150.511 1 19 2 187
1956087S18149 1956 33 SP EA NOT_NAMED 1956-03-28 03:00:00 TS -19.1818 150.462 main 216 199 P________PP___ SH311956 -19.1874 150.468 17 -1 -19.1874 150.468 TC 17 -19.1706 150.452 1 18 2 237
1956087S18149 1956 33 SP EA NOT_NAMED 1956-03-28 06:00:00 TS -19.2115 150.296 main 199 183 O________OP___ jtwc_sh SH311956 -19.2000 150.300 15 -1 -19.2000 150.300 TC 15 -19.2345 150.287 1 17 4 262
1956087S18149 1956 33 SP EA NOT_NAMED 1956-03-28 09:00:00 TS -19.2322 150.064 main 183 168 P________PP___ SH311956 -19.2301 150.065 15 -1 -19.2301 150.065 TC 15 -19.2364 150.062 1 15 5 270
1956087S18149 1956 33 SP EA NOT_NAMED 1956-03-28 11:00:00 TS -19.2132 149.890 main 168 161 P________PO___ SH311956 -19.2198 149.886 15 -1 -19.2198 149.886 TC 15 -19.2000 149.900 1 15 5 280
1956087S18149 1956 33 SP EA NOT_NAMED 1956-03-28 12:00:00 TS -19.1880 149.808 main 161 154 O________OP___ jtwc_sh SH311956 -19.2000 149.800 15 -1 -19.2000 149.800 TC 15 -19.1700 149.820 1 15 5 298
1956087S18149 1956 33 SP EA NOT_NAMED 1956-03-28 15:00:00 TS -19.0579 149.585 main 158 158 P________PP___ SH311956 -19.0775 149.582 15 -1 -19.0775 149.582 TC 15 -19.0384 149.587 1 15 5 307
1956087S18149 1956 33 SP EA NOT_NAMED 1956-03-28 18:00:00 TS -18.8751 149.378 main 167 164 O________OP___ jtwc_sh SH311956 -18.9000 149.400 15 -1 -18.9000 149.400 TC 15 -18.8584 149.363 1 15 6 315
1956087S18149 1956 33 SP EA NOT_NAMED 1956-03-28 21:00:00 NR -18.6481 149.144 main 177 177 __________P___ SH311956 -1 TC -18.6481 149.144 1 15 6 316
1956087S18149 1956 33 SP EA NOT_NAMED 1956-03-28 23:00:00 NR -18.5000 149.000 main 183 __________O___ SH311956 -1 TC -18.5000 149.000 1 15 6 317

Digital Typhoon Data and Search

About IBTrACS Database

This database is a web-friendly format of International Best Track Archive for Climate Stewardship (IBTrACS), a global best track data archive curated by NOAA dating back to 1842.

Updated: 2021-10-27